• Join FlightAware (Why Join?)
  • Login
  • US Flag 
06:59PM EDT


 

Airport Tracker/Info


-or-


 

Live Flight TrackerFlight Track Log ✈ AMF1324 ✈ 19-Mar-2014 ✈ KBUF - KBGM

Flight Track Log - Related Links

Times and Time Zones

All times are in EDT time to prevent confusion due to time zone crossing. See the AMF1324 flight status page for this flight to view local times or setup timezone preferences in your user account.

Time Position Orientation Groundspeed Altitude Reporting Facility
EDT Latitude Longitude Course Direction KTS MPH feet Rate Location/Type
06:31AM 42.9333 -78.7500 160° South 135 155 1,700  Level Buffalo TRACON
06:32AM 42.9000 -78.7333 160° South 184 212 4,200 2,160 Climbing Buffalo TRACON
06:34AM 42.9056 -78.5800 87° East 203 234 8,400 1,920 Climbing Cleveland Center
06:35AM 42.9031 -78.5053 93° East 203 234 10,200 1,620 Climbing Cleveland Center
06:36AM 42.8944 -78.4206 98° East 209 241 11,700 1,320 Climbing Cleveland Center
06:37AM 42.8850 -78.3394 99° East 216 249 13,000 600 Climbing Cleveland Center
06:38AM 42.8719 -78.2433 100° East 262 302 13,000  Level Cleveland Center
06:39AM 42.8572 -78.1414 101° East 275 316 13,000  Level Cleveland Center
06:40AM 42.8450 -78.0358 99° East 279 321 13,000  Level Cleveland Center
06:41AM 42.8364 -77.9289 96° East 280 322 13,000  Level Cleveland Center
06:42AM 42.8306 -77.8200 94° East 287 330 13,000  Level Cleveland Center
06:43AM 42.8269 -77.7108 93° East 287 330 13,000  Level Cleveland Center
06:44AM 42.7908 -77.6178 118° Southeast 280 322 13,100  Climbing Cleveland Center
06:45AM 42.7564 -77.5217 116° Southeast 279 321 13,100  Level Cleveland Center
06:46AM 42.7228 -77.4250 115° Southeast 279 321 13,100  Level Cleveland Center
06:47AM 42.6892 -77.3294 116° Southeast 279 321 13,100  Level Cleveland Center
06:48AM 42.6561 -77.2328 115° Southeast 279 321 13,100  Level Cleveland Center
06:49AM 42.6211 -77.1383 117° Southeast 280 322 13,100  Level Cleveland Center
06:50AM 42.5819 -77.0481 120° Southeast 278 320 13,200  Climbing Cleveland Center
06:51AM 42.5325 -76.9442 123° Southeast 277 319 13,200 -180 Level Cleveland Center
06:52AM 42.4906 -76.8564 123° Southeast 277 319 12,900 -660 Descending Cleveland Center
06:53AM 42.4617 -76.7992 124° Southeast 282 325 12,100 -960 Descending New York Center
06:54AM 42.4161 -76.7108 125° Southeast 292 336 11,300 -1,260 Descending New York Center
06:55AM 42.3772 -76.6117 118° Southeast 292 336 9,600 -1,740 Descending New York Center
06:56AM 42.3381 -76.5186 120° Southeast 292 336 7,900 -1,680 Descending New York Center
06:57AM 42.3031 -76.4258 117° Southeast 286 329 6,300 -1,380 Descending New York Center
06:58AM 42.2700 -76.3306 115° Southeast 281 323 5,200 -1,140 Descending New York Center
06:59AM 42.2428 -76.2442 113° Southeast 264 304 4,100 -600 Descending New York Center
07:00AM 42.2339 -76.1678 99° East 234 269 4,000 -360 Descending New York Center
07:01AM 42.2597 -76.0997 63° Northeast 198 228 3,400 -600 Descending New York Center
07:02AM 42.2619 -76.0494 87° East 173 199 2,900 -540 Descending New York Center
07:03AM 42.2450 -76.0119 121° Southeast 124 143 2,400 -420 Descending New York Center
07:04AM 42.2364 -75.9664 104° East 112 129 2,100 -300 Descending New York Center